Terminal Aerodrome Forecast
Issued by NWS Mt. Holly, NJ

Home | Current Version | Previous Version | Text Only | Print | Product List | Glossary On
Versions: 1 2 3 4 5 6 7 8 9 10 11 12 13 14 15 16 17 18 19 20 21 22 23 24 25
984
FTUS41 KPHI 252055 AAB
TAFPHL
TAF AMD
KPHL 252055Z 2521/2624 09006KT P6SM SCT015 OVC025
     FM252300 VRB03KT P6SM VCSH SCT007 OVC015
     FM260300 30006KT P6SM VCSH BKN007 OVC020
     FM260700 30009KT P6SM BKN025
     FM261000 30009KT P6SM BKN250
     FM261400 30012KT P6SM SCT250
     FM262100 28009KT P6SM SKC=

USA.gov is the U.S. government's official web portal to all federal, state and local government web resources and services.